createdAt,value
2018-07-31T00:00:55.027Z,23.85
2018-07-31T00:03:25.555Z,23.64
2018-07-31T00:05:57.100Z,23.74
2018-07-31T00:08:28.387Z,23.78
2018-07-31T00:10:58.870Z,23.67
2018-07-31T00:13:29.244Z,23.72
2018-07-31T00:16:01.243Z,23.62
2018-07-31T00:18:31.606Z,23.60
2018-07-31T00:21:01.971Z,23.53
2018-07-31T00:23:32.365Z,23.61
2018-07-31T00:26:02.829Z,23.70
2018-07-31T00:28:33.241Z,23.64
2018-07-31T00:31:03.986Z,23.72
2018-07-31T00:33:34.784Z,23.75
2018-07-31T00:36:05.496Z,23.78
2018-07-31T00:38:36.472Z,23.83
2018-07-31T00:41:07.163Z,23.96
2018-07-31T00:43:37.648Z,23.99
2018-07-31T00:46:08.018Z,23.99
2018-07-31T00:48:38.489Z,24.08
2018-07-31T00:51:08.984Z,24.10
2018-07-31T00:53:39.575Z,24.19
2018-07-31T00:56:10.113Z,24.21
2018-07-31T00:58:40.460Z,24.14
2018-07-31T01:01:10.824Z,24.21
2018-07-31T01:03:41.388Z,24.15
2018-07-31T01:06:11.915Z,24.14
2018-07-31T01:08:42.369Z,24.13
2018-07-31T01:11:12.717Z,24.13
2018-07-31T01:13:43.216Z,24.19
2018-07-31T01:16:13.784Z,24.17
2018-07-31T01:18:44.177Z,24.19
2018-07-31T01:21:14.728Z,24.13
2018-07-31T01:23:45.142Z,23.98
2018-07-31T01:26:15.715Z,23.92
2018-07-31T01:28:46.144Z,23.69
2018-07-31T01:31:16.679Z,23.65
2018-07-31T01:33:47.234Z,23.81
2018-07-31T01:36:17.869Z,23.85
2018-07-31T01:38:48.396Z,23.74
2018-07-31T01:41:19.000Z,23.70
2018-07-31T01:43:49.387Z,23.68
2018-07-31T01:46:19.846Z,23.61
2018-07-31T01:48:50.253Z,23.57
2018-07-31T01:51:20.711Z,23.58
2018-07-31T01:53:51.233Z,23.58
2018-07-31T01:56:21.833Z,23.54
2018-07-31T01:58:52.349Z,23.44
2018-07-31T02:01:22.902Z,23.37
2018-07-31T02:03:53.444Z,23.33
2018-07-31T02:06:26.794Z,23.36
2018-07-31T02:08:58.476Z,23.40
2018-07-31T02:11:29.312Z,23.28
2018-07-31T02:13:59.565Z,23.17
2018-07-31T02:16:29.877Z,23.17
2018-07-31T02:19:00.863Z,23.02
2018-07-31T02:21:31.222Z,22.87
2018-07-31T02:24:01.553Z,22.86
2018-07-31T02:26:31.861Z,22.92
2018-07-31T02:29:02.232Z,22.91
2018-07-31T02:31:32.567Z,22.80
2018-07-31T02:34:02.980Z,22.80
2018-07-31T02:36:33.614Z,22.75
2018-07-31T02:39:04.440Z,22.69
2018-07-31T02:41:34.832Z,22.62
2018-07-31T02:44:05.402Z,22.49
2018-07-31T02:46:35.666Z,22.58
2018-07-31T02:49:06.182Z,22.65
2018-07-31T02:51:36.610Z,22.64
2018-07-31T02:54:07.698Z,22.60
2018-07-31T02:56:38.130Z,22.48
2018-07-31T02:59:08.396Z,22.42
2018-07-31T03:01:38.811Z,22.42
2018-07-31T03:04:09.035Z,22.43
2018-07-31T03:06:39.535Z,22.31
2018-07-31T03:09:10.396Z,22.33
2018-07-31T03:11:40.726Z,22.29
2018-07-31T03:14:11.025Z,22.34
2018-07-31T03:16:41.596Z,22.30
2018-07-31T03:19:11.924Z,22.37
2018-07-31T03:21:42.436Z,22.38
2018-07-31T03:24:12.870Z,22.37
2018-07-31T03:26:43.363Z,22.43
2018-07-31T03:29:13.766Z,22.47
2018-07-31T03:31:44.258Z,22.53
2018-07-31T03:34:15.073Z,22.61
2018-07-31T03:36:45.466Z,22.67
2018-07-31T03:39:15.871Z,22.74
2018-07-31T03:41:46.150Z,22.89
2018-07-31T03:44:16.665Z,22.90
2018-07-31T03:46:47.063Z,23.04
2018-07-31T03:49:17.583Z,23.18
2018-07-31T03:51:47.830Z,23.27
2018-07-31T03:54:18.313Z,23.20
2018-07-31T03:56:48.598Z,23.13
2018-07-31T03:59:18.912Z,22.98
2018-07-31T04:01:49.167Z,23.16
2018-07-31T04:04:19.498Z,23.29
2018-07-31T04:06:49.909Z,23.46
2018-07-31T04:09:20.262Z,23.65
2018-07-31T04:11:50.624Z,24.07
2018-07-31T04:14:20.883Z,23.96
2018-07-31T04:16:51.272Z,23.65
2018-07-31T04:19:21.763Z,23.44
2018-07-31T04:21:52.177Z,23.16
2018-07-31T04:24:22.600Z,23.40
2018-07-31T04:26:52.917Z,23.55
2018-07-31T04:29:23.235Z,24.10
2018-07-31T04:31:53.610Z,24.91
2018-07-31T04:34:24.017Z,25.68
2018-07-31T04:36:54.420Z,26.15
2018-07-31T04:39:24.791Z,26.53
2018-07-31T04:41:55.176Z,26.61
2018-07-31T04:44:25.564Z,25.59
2018-07-31T04:46:56.135Z,25.41
2018-07-31T04:49:26.458Z,25.67
2018-07-31T04:51:57.391Z,25.39
2018-07-31T04:54:27.800Z,25.64
2018-07-31T04:56:58.181Z,25.71
2018-07-31T04:59:28.463Z,26.09
2018-07-31T05:01:59.086Z,26.32
2018-07-31T05:04:29.646Z,26.44
2018-07-31T05:06:59.997Z,26.79
2018-07-31T05:09:30.561Z,27.35
2018-07-31T05:12:01.313Z,27.00
2018-07-31T05:14:31.717Z,27.31
2018-07-31T05:17:02.052Z,27.86
2018-07-31T05:19:32.536Z,28.78
2018-07-31T05:22:03.299Z,28.50
2018-07-31T05:24:33.549Z,27.76
2018-07-31T05:27:04.272Z,27.73
2018-07-31T05:29:34.714Z,27.66
2018-07-31T05:32:05.309Z,27.66
2018-07-31T05:34:35.659Z,27.33
2018-07-31T05:37:06.337Z,27.42
2018-07-31T05:39:36.662Z,27.92
2018-07-31T05:42:06.975Z,28.08
2018-07-31T05:44:37.418Z,28.99
2018-07-31T05:47:07.892Z,30.02
2018-07-31T05:49:38.362Z,29.87
2018-07-31T05:52:09.006Z,29.70
2018-07-31T05:54:39.541Z,29.60
2018-07-31T05:57:09.859Z,30.14
2018-07-31T05:59:40.361Z,31.40
2018-07-31T06:02:11.696Z,31.90
2018-07-31T06:04:42.475Z,32.83
2018-07-31T06:07:13.039Z,33.77
2018-07-31T06:09:43.468Z,34.28
2018-07-31T06:12:13.832Z,34.56
2018-07-31T06:14:44.394Z,34.53
2018-07-31T06:17:14.912Z,34.18
2018-07-31T06:19:45.289Z,35.01
2018-07-31T06:22:15.891Z,34.88
2018-07-31T06:24:46.484Z,35.78
2018-07-31T06:27:16.846Z,35.85
2018-07-31T06:29:47.354Z,35.57
2018-07-31T06:32:17.566Z,34.90
2018-07-31T06:34:48.363Z,34.29
2018-07-31T06:37:18.896Z,34.28
2018-07-31T06:39:49.199Z,33.99
2018-07-31T06:42:19.766Z,34.80
2018-07-31T06:44:50.256Z,35.37
2018-07-31T06:47:20.820Z,35.97
2018-07-31T06:49:51.317Z,35.94
2018-07-31T06:52:21.682Z,35.44
2018-07-31T06:54:52.212Z,36.26
2018-07-31T06:57:22.520Z,37.43
2018-07-31T06:59:52.862Z,36.56
2018-07-31T07:02:23.175Z,36.81
2018-07-31T07:04:53.553Z,37.38
2018-07-31T07:07:23.804Z,37.38
2018-07-31T07:09:54.295Z,37.77
2018-07-31T07:12:24.687Z,37.52
2018-07-31T07:14:55.061Z,37.59
2018-07-31T07:17:25.554Z,37.67
2018-07-31T07:19:56.042Z,38.07
2018-07-31T07:22:26.377Z,38.76
2018-07-31T07:24:56.831Z,38.76
2018-07-31T07:27:27.259Z,37.86
2018-07-31T07:29:58.053Z,37.64
2018-07-31T07:32:28.372Z,38.79
2018-07-31T07:34:58.941Z,39.33
2018-07-31T07:37:29.317Z,38.16
2018-07-31T07:39:59.612Z,38.04
2018-07-31T07:42:30.064Z,39.09
2018-07-31T07:45:00.463Z,39.63
2018-07-31T07:47:30.802Z,40.26
2018-07-31T07:50:01.206Z,40.08
2018-07-31T07:52:31.633Z,38.61
2018-07-31T07:55:01.908Z,38.12
2018-07-31T07:57:32.538Z,38.55
2018-07-31T08:00:03.073Z,38.58
2018-07-31T08:02:33.587Z,39.14
2018-07-31T08:05:04.074Z,38.86
2018-07-31T08:07:34.281Z,38.37
2018-07-31T08:10:05.122Z,38.49
2018-07-31T08:12:35.502Z,38.61
2018-07-31T08:15:06.438Z,39.18
2018-07-31T08:17:36.735Z,38.28
2018-07-31T08:20:07.848Z,38.44
2018-07-31T08:22:38.249Z,38.76
2018-07-31T08:25:08.803Z,40.09
2018-07-31T08:27:39.140Z,39.24
2018-07-31T08:30:09.507Z,38.93
2018-07-31T08:32:40.083Z,38.93
2018-07-31T08:35:10.754Z,37.89
2018-07-31T08:37:41.103Z,38.89
2018-07-31T08:40:11.509Z,39.70
2018-07-31T08:42:41.816Z,39.74
2018-07-31T08:45:12.160Z,39.86
2018-07-31T08:47:42.651Z,38.49
2018-07-31T08:50:12.931Z,39.94
2018-07-31T08:52:43.532Z,39.59
2018-07-31T08:55:13.908Z,39.25
2018-07-31T08:57:44.408Z,39.78
2018-07-31T09:00:14.868Z,39.79
2018-07-31T09:02:45.356Z,40.25
2018-07-31T09:05:15.732Z,39.85
2018-07-31T09:07:46.089Z,39.23
2018-07-31T09:10:16.618Z,39.60
2018-07-31T09:12:46.990Z,39.70
2018-07-31T09:15:17.503Z,39.92
2018-07-31T09:17:47.891Z,39.20
2018-07-31T09:20:18.267Z,39.06
2018-07-31T09:22:49.678Z,40.39
2018-07-31T09:25:19.944Z,40.64
2018-07-31T09:27:50.407Z,39.60
2018-07-31T09:30:20.877Z,39.20
2018-07-31T09:32:56.094Z,37.28
2018-07-31T09:35:26.388Z,38.09
2018-07-31T09:37:56.852Z,37.07
2018-07-31T09:40:27.241Z,37.78
2018-07-31T09:42:57.632Z,38.77
2018-07-31T09:45:27.945Z,38.98
2018-07-31T09:47:58.429Z,38.87
2018-07-31T09:50:29.214Z,38.08
2018-07-31T09:52:59.588Z,39.06
2018-07-31T09:55:29.937Z,40.13
2018-07-31T09:58:00.363Z,39.77
2018-07-31T10:00:36.186Z,39.37
2018-07-31T10:03:06.514Z,38.55
2018-07-31T10:05:36.788Z,37.96
2018-07-31T10:08:07.320Z,37.65
2018-07-31T10:10:37.733Z,37.12
2018-07-31T10:13:08.152Z,36.76
2018-07-31T10:15:38.590Z,36.71
2018-07-31T10:18:09.161Z,37.43
2018-07-31T10:20:39.594Z,37.24
2018-07-31T10:23:09.893Z,37.02
2018-07-31T10:25:40.337Z,37.45
2018-07-31T10:28:10.869Z,38.53
2018-07-31T10:30:41.329Z,39.01
2018-07-31T10:33:12.211Z,39.23
2018-07-31T10:35:42.713Z,39.83
2018-07-31T10:38:13.117Z,39.55
2018-07-31T10:40:43.333Z,38.94
2018-07-31T10:43:13.676Z,38.38
2018-07-31T10:45:44.035Z,38.30
2018-07-31T10:48:14.375Z,38.71
2018-07-31T10:50:44.591Z,37.73
2018-07-31T10:53:15.093Z,37.00
2018-07-31T10:55:45.572Z,36.25
2018-07-31T10:58:15.986Z,35.34
2018-07-31T11:00:46.249Z,35.03
2018-07-31T11:03:16.666Z,35.79
2018-07-31T11:05:47.046Z,35.80
2018-07-31T11:08:17.456Z,36.13
2018-07-31T11:10:47.831Z,36.13
2018-07-31T11:13:18.346Z,35.34
2018-07-31T11:15:49.259Z,35.09
2018-07-31T11:18:19.667Z,35.65
2018-07-31T11:20:50.118Z,36.35
2018-07-31T11:23:20.524Z,36.84
2018-07-31T11:25:50.845Z,37.33
2018-07-31T11:28:21.088Z,36.70
2018-07-31T11:30:51.325Z,37.70
2018-07-31T11:33:21.868Z,38.35
2018-07-31T11:35:52.428Z,38.90
2018-07-31T11:38:23.059Z,37.70
2018-07-31T11:40:53.329Z,38.06
2018-07-31T11:43:24.072Z,37.73
2018-07-31T11:45:54.528Z,37.37
2018-07-31T11:48:24.889Z,35.89
2018-07-31T11:50:55.592Z,35.54
2018-07-31T11:53:26.075Z,35.47
2018-07-31T11:55:56.458Z,35.64
2018-07-31T11:58:26.779Z,35.77
2018-07-31T12:00:57.124Z,35.04
2018-07-31T12:03:27.506Z,35.82
2018-07-31T12:05:58.576Z,35.50
2018-07-31T12:08:28.802Z,35.79
2018-07-31T12:10:59.172Z,35.50
2018-07-31T12:13:29.551Z,35.11
2018-07-31T12:16:00.920Z,34.16
2018-07-31T12:18:31.304Z,34.17
2018-07-31T12:21:01.934Z,34.19
2018-07-31T12:23:32.496Z,34.35
2018-07-31T12:26:03.118Z,34.42
2018-07-31T12:28:33.408Z,33.86
2018-07-31T12:31:03.815Z,33.84
2018-07-31T12:33:34.774Z,33.52
2018-07-31T12:36:06.714Z,32.90
2018-07-31T12:38:37.467Z,32.93
2018-07-31T12:41:07.912Z,32.99
2018-07-31T12:43:41.531Z,32.92
2018-07-31T12:46:12.882Z,32.90
2018-07-31T12:48:43.184Z,32.97
2018-07-31T12:51:13.676Z,32.86
2018-07-31T12:53:43.953Z,32.92
2018-07-31T12:56:14.399Z,32.53
2018-07-31T12:58:44.806Z,32.20
2018-07-31T13:01:15.096Z,32.22
2018-07-31T13:03:45.416Z,32.00
2018-07-31T13:06:15.906Z,31.94
2018-07-31T13:08:46.481Z,32.12
2018-07-31T13:11:16.960Z,32.19
2018-07-31T13:13:47.734Z,32.30
2018-07-31T13:16:18.279Z,31.72
2018-07-31T13:18:48.877Z,29.86
2018-07-31T13:21:19.148Z,29.25
2018-07-31T13:23:49.582Z,29.56
2018-07-31T13:26:19.852Z,29.49
2018-07-31T13:28:50.939Z,29.64
2018-07-31T13:31:21.528Z,30.10
2018-07-31T13:33:52.860Z,30.38
2018-07-31T13:36:23.651Z,30.32
2018-07-31T13:38:54.281Z,30.27
2018-07-31T13:41:25.761Z,30.14
2018-07-31T13:43:56.425Z,30.29
2018-07-31T13:46:27.055Z,30.33
2018-07-31T13:48:57.732Z,30.21
2018-07-31T13:51:28.278Z,30.13
2018-07-31T13:53:59.162Z,30.23
2018-07-31T13:56:30.409Z,30.18
2018-07-31T13:59:01.792Z,29.98
2018-07-31T14:01:32.854Z,29.87
2018-07-31T14:04:09.724Z,29.74
2018-07-31T14:06:40.843Z,29.46
2018-07-31T14:09:19.932Z,29.31
2018-07-31T14:11:50.674Z,28.72
2018-07-31T14:14:21.118Z,27.92
2018-07-31T14:16:51.788Z,27.06
2018-07-31T14:19:22.222Z,26.31
2018-07-31T14:21:52.655Z,26.01
2018-07-31T14:24:24.238Z,25.70
2018-07-31T14:26:54.950Z,25.06
2018-07-31T14:29:25.940Z,24.32
2018-07-31T14:31:56.543Z,23.81
2018-07-31T14:34:27.433Z,23.63
2018-07-31T14:36:57.991Z,23.67
2018-07-31T14:39:28.852Z,23.73
2018-07-31T14:41:59.524Z,23.58
2018-07-31T14:44:30.085Z,23.28
2018-07-31T14:47:01.386Z,23.32
2018-07-31T14:49:31.718Z,23.52
2018-07-31T14:52:02.186Z,23.61
2018-07-31T14:54:32.506Z,23.68
2018-07-31T14:57:04.381Z,23.68
2018-07-31T14:59:34.656Z,23.57
2018-07-31T15:02:04.986Z,23.33
2018-07-31T15:04:35.712Z,23.22
2018-07-31T15:07:06.773Z,22.99
2018-07-31T15:09:37.352Z,22.84
2018-07-31T15:12:08.091Z,22.83
2018-07-31T15:17:07.667Z,22.80
2018-07-31T15:19:38.356Z,22.93
2018-07-31T15:22:08.976Z,23.10
2018-07-31T15:24:39.560Z,23.33
2018-07-31T15:27:10.391Z,23.36
2018-07-31T15:29:41.036Z,23.42
2018-07-31T15:32:11.562Z,23.65
2018-07-31T15:34:42.314Z,24.03
2018-07-31T15:37:12.818Z,24.45
2018-07-31T15:39:43.498Z,24.81
2018-07-31T15:42:14.006Z,25.15
2018-07-31T15:44:44.609Z,25.50
2018-07-31T15:47:16.392Z,25.77
2018-07-31T15:49:46.861Z,25.95
2018-07-31T15:52:17.468Z,26.19
2018-07-31T15:54:48.147Z,26.49
2018-07-31T15:57:18.724Z,26.68
2018-07-31T15:59:50.280Z,26.68
2018-07-31T16:02:20.787Z,26.62
2018-07-31T16:04:51.188Z,26.58
2018-07-31T16:07:21.617Z,26.63
2018-07-31T16:09:52.112Z,26.87
2018-07-31T16:12:22.632Z,27.06
2018-07-31T16:14:53.057Z,27.13
2018-07-31T16:17:24.218Z,27.17
2018-07-31T16:19:54.788Z,27.21
2018-07-31T16:22:25.837Z,27.18
2018-07-31T16:24:56.641Z,27.26
2018-07-31T16:27:27.192Z,27.37
2018-07-31T16:29:57.796Z,27.31
2018-07-31T16:32:28.709Z,27.05
2018-07-31T16:34:59.320Z,26.61
2018-07-31T16:37:30.033Z,26.98
2018-07-31T16:40:00.699Z,27.11
2018-07-31T16:42:31.248Z,27.10
2018-07-31T16:45:01.849Z,27.11
2018-07-31T16:47:32.322Z,27.04
2018-07-31T16:50:04.722Z,26.77
2018-07-31T16:52:35.241Z,26.60
2018-07-31T16:55:05.761Z,26.45
2018-07-31T16:57:36.534Z,26.37
2018-07-31T17:00:07.794Z,26.22
2018-07-31T17:02:38.521Z,26.17
2018-07-31T17:05:09.083Z,26.09
2018-07-31T17:07:39.665Z,26.14
2018-07-31T17:10:10.212Z,26.10
2018-07-31T17:12:40.945Z,26.06
2018-07-31T17:15:11.478Z,25.96
2018-07-31T17:17:42.053Z,25.94
2018-07-31T17:20:12.377Z,25.86
2018-07-31T17:22:42.826Z,25.76
2018-07-31T17:25:13.374Z,25.67
2018-07-31T17:27:44.057Z,25.62
2018-07-31T17:30:14.665Z,25.57
2018-07-31T17:32:46.085Z,25.56
2018-07-31T17:35:16.431Z,25.57
2018-07-31T17:37:46.932Z,25.43
2018-07-31T17:40:17.374Z,25.59
2018-07-31T17:42:48.051Z,25.53
2018-07-31T17:45:18.556Z,25.45
2018-07-31T17:47:49.273Z,25.44
2018-07-31T17:50:19.970Z,25.34
2018-07-31T17:52:50.611Z,25.35
2018-07-31T17:55:21.008Z,25.23
2018-07-31T17:57:51.823Z,25.31
2018-07-31T18:00:23.345Z,25.19
2018-07-31T18:02:53.873Z,25.18
2018-07-31T18:05:24.467Z,25.07
2018-07-31T18:07:55.357Z,25.08
2018-07-31T18:10:26.218Z,25.07
2018-07-31T18:12:56.824Z,25.07
2018-07-31T18:15:28.269Z,24.96
2018-07-31T18:17:58.805Z,24.92
2018-07-31T18:20:29.624Z,24.89
2018-07-31T18:23:00.025Z,24.82
2018-07-31T18:25:30.707Z,24.79
2018-07-31T18:28:02.079Z,24.72
2018-07-31T18:30:33.527Z,24.68
2018-07-31T18:33:03.824Z,24.61
2018-07-31T18:35:34.283Z,24.67
2018-07-31T18:38:05.608Z,24.53
2018-07-31T18:40:36.409Z,24.48
2018-07-31T18:43:06.885Z,24.47
2018-07-31T18:45:37.574Z,24.52
2018-07-31T18:48:07.973Z,24.53
2018-07-31T18:50:39.178Z,24.47
2018-07-31T18:53:09.572Z,24.49
2018-07-31T18:55:40.829Z,24.49
2018-07-31T18:58:11.423Z,24.46
2018-07-31T19:00:41.929Z,24.45
2018-07-31T19:03:13.536Z,24.42
2018-07-31T19:05:44.091Z,24.27
2018-07-31T19:08:15.169Z,24.24
2018-07-31T19:10:46.293Z,24.11
2018-07-31T19:13:16.874Z,24.11
2018-07-31T19:15:47.474Z,23.92
2018-07-31T19:18:17.880Z,23.84
2018-07-31T19:20:48.381Z,23.78
2018-07-31T19:23:18.909Z,23.72
2018-07-31T19:25:49.497Z,23.68
2018-07-31T19:28:19.886Z,23.53
2018-07-31T19:30:50.420Z,23.49
2018-07-31T19:33:20.926Z,23.43
2018-07-31T19:35:51.551Z,23.52
2018-07-31T19:38:22.187Z,23.53
2018-07-31T19:40:52.781Z,23.44
2018-07-31T19:43:23.202Z,23.47
2018-07-31T19:45:53.806Z,23.50
2018-07-31T19:48:24.592Z,23.43
2018-07-31T19:50:55.051Z,23.56
2018-07-31T19:53:25.481Z,23.43
2018-07-31T19:55:56.466Z,23.43
2018-07-31T19:58:26.833Z,23.37
2018-07-31T20:00:57.114Z,23.37
2018-07-31T20:03:27.535Z,23.40
2018-07-31T20:05:58.267Z,23.38
2018-07-31T20:08:28.792Z,23.39
2018-07-31T20:10:59.180Z,23.36
2018-07-31T20:13:29.818Z,23.36
2018-07-31T20:16:00.401Z,23.28
2018-07-31T20:18:30.724Z,23.21
2018-07-31T20:21:01.292Z,23.16
2018-07-31T20:23:31.765Z,22.99
2018-07-31T20:26:02.301Z,22.93
2018-07-31T20:28:32.762Z,22.96
2018-07-31T20:31:03.373Z,23.05
2018-07-31T20:33:33.993Z,23.03
2018-07-31T20:36:04.442Z,23.03
2018-07-31T20:38:34.875Z,23.09
2018-07-31T20:41:05.509Z,23.07
2018-07-31T20:43:36.194Z,22.99
2018-07-31T20:46:06.993Z,23.01
2018-07-31T20:48:37.577Z,23.00
2018-07-31T20:51:09.090Z,22.94
2018-07-31T20:53:39.855Z,22.96
2018-07-31T20:56:10.200Z,23.02
2018-07-31T20:58:40.708Z,22.85
2018-07-31T21:01:11.089Z,22.87
2018-07-31T21:03:41.667Z,22.80
2018-07-31T21:06:12.128Z,22.62
2018-07-31T21:08:42.530Z,22.53
2018-07-31T21:11:12.909Z,22.47
2018-07-31T21:13:43.565Z,22.38
2018-07-31T21:16:14.284Z,22.28
2018-07-31T21:18:44.698Z,22.16
2018-07-31T21:21:15.242Z,22.18
2018-07-31T21:23:45.957Z,22.14
2018-07-31T21:26:17.189Z,22.17
2018-07-31T21:28:47.672Z,22.23
2018-07-31T21:31:18.224Z,22.19
2018-07-31T21:33:48.896Z,22.11
2018-07-31T21:36:20.389Z,22.10
2018-07-31T21:38:50.962Z,22.05
2018-07-31T21:41:21.473Z,21.99
2018-07-31T21:43:52.265Z,21.92
2018-07-31T21:46:22.928Z,21.94
2018-07-31T21:48:53.710Z,21.97
2018-07-31T21:51:24.043Z,21.94
2018-07-31T21:53:54.826Z,21.93
2018-07-31T21:56:25.300Z,21.95
2018-07-31T21:58:55.747Z,21.95
2018-07-31T22:01:26.368Z,21.96
2018-07-31T22:03:56.738Z,22.00
2018-07-31T22:06:27.447Z,21.79
2018-07-31T22:08:58.106Z,21.99
2018-07-31T22:11:28.767Z,21.99
2018-07-31T22:13:59.654Z,21.91
2018-07-31T22:16:30.271Z,21.88
2018-07-31T22:19:00.638Z,21.89
2018-07-31T22:21:31.268Z,21.92
2018-07-31T22:24:01.637Z,21.84
2018-07-31T22:26:32.010Z,21.77
2018-07-31T22:29:02.329Z,21.76
2018-07-31T22:31:32.742Z,21.82
2018-07-31T22:34:03.241Z,21.71
2018-07-31T22:36:33.719Z,21.70
2018-07-31T22:39:04.664Z,21.69
2018-07-31T22:41:35.089Z,21.70
2018-07-31T22:44:05.631Z,21.66
2018-07-31T22:46:36.017Z,21.62
2018-07-31T22:49:06.640Z,21.61
2018-07-31T22:51:37.334Z,21.67
2018-07-31T22:54:08.074Z,21.71
2018-07-31T22:56:38.440Z,21.73
2018-07-31T22:59:09.030Z,21.80
2018-07-31T23:01:39.703Z,21.77
2018-07-31T23:04:10.083Z,21.70
2018-07-31T23:06:40.820Z,21.59
2018-07-31T23:09:12.145Z,21.51
2018-07-31T23:11:42.755Z,21.48
2018-07-31T23:14:13.089Z,21.47
2018-07-31T23:16:43.572Z,21.53
2018-07-31T23:19:14.398Z,21.59
2018-07-31T23:21:44.798Z,21.46
2018-07-31T23:24:16.098Z,21.30
2018-07-31T23:26:46.565Z,21.39
2018-07-31T23:29:16.976Z,21.31
2018-07-31T23:31:47.418Z,21.34
2018-07-31T23:34:17.903Z,21.20
2018-07-31T23:36:48.398Z,21.18
2018-07-31T23:39:19.112Z,21.16
2018-07-31T23:41:49.451Z,21.13
2018-07-31T23:44:20.230Z,21.13
2018-07-31T23:46:50.586Z,21.17
2018-07-31T23:49:21.069Z,21.23
2018-07-31T23:51:52.392Z,21.20
2018-07-31T23:54:23.171Z,21.29
2018-07-31T23:56:53.888Z,21.27
2018-07-31T23:59:24.358Z,21.35
